createdAt,value
2017-09-28T12:19:47.039Z,25
2017-09-28T12:20:25.511Z,25.2
2017-09-28T12:21:27.590Z,25.3
2017-09-28T12:22:29.609Z,25.4
2017-09-28T12:23:32.215Z,25.3
2017-09-28T12:24:34.318Z,25.3
2017-09-28T12:25:36.413Z,25.2
2017-09-28T12:26:38.475Z,25.3
2017-09-28T12:27:40.552Z,25.3
2017-09-28T12:28:17.550Z,23.1
2017-09-28T12:29:19.751Z,20.1
2017-09-28T12:30:21.860Z,18.7
2017-09-28T12:31:24.237Z,18.4
2017-09-28T12:32:26.362Z,18.3
2017-09-28T12:33:28.461Z,18.1
2017-09-28T12:34:30.570Z,18.1
2017-09-28T12:35:32.665Z,18.1
2017-09-28T12:36:34.921Z,18.2
2017-09-28T12:37:37.065Z,18.3
2017-09-28T12:38:39.150Z,18.4
2017-09-28T12:39:41.292Z,18.3
2017-09-28T12:40:43.440Z,18.1
2017-09-28T12:41:45.598Z,18.2
2017-09-28T12:42:47.675Z,18.3
2017-09-28T12:43:49.749Z,18.5
2017-09-28T12:44:52.006Z,18.2
2017-09-28T12:45:54.104Z,18.1
2017-09-28T12:46:56.223Z,18.1
2017-09-28T12:47:58.375Z,18.3
2017-09-28T12:49:00.516Z,18.6
2017-09-28T12:50:02.692Z,18.7
2017-09-28T12:51:04.730Z,18.7
2017-09-28T12:52:06.855Z,18.4
2017-09-28T12:53:08.935Z,18.2
2017-09-28T12:54:11.233Z,18.3
2017-09-28T12:55:13.648Z,18.3
2017-09-28T12:56:15.754Z,18.3
2017-09-28T12:57:17.900Z,18.4
2017-09-28T12:58:20.012Z,18.6
2017-09-28T12:59:22.239Z,18.8
2017-09-28T13:00:24.468Z,18.8
2017-09-28T13:01:26.602Z,19
2017-09-28T13:02:28.663Z,19
2017-09-28T13:03:30.760Z,18.9
2017-09-28T13:04:32.867Z,18.8
2017-09-28T13:05:35.001Z,18.8
2017-09-28T13:06:37.107Z,18.8
2017-09-28T13:07:39.187Z,19
2017-09-28T13:08:41.274Z,19
2017-09-28T13:09:43.423Z,19.3
2017-09-28T13:10:45.570Z,19.2
2017-09-28T13:11:47.718Z,19.3
2017-09-28T13:12:49.867Z,19.3
2017-09-28T13:13:51.948Z,19.3
2017-09-28T13:14:54.081Z,19.2
2017-09-28T13:15:56.525Z,19.4
2017-09-28T13:16:58.644Z,19.4
2017-09-28T13:18:00.757Z,19.3
2017-09-28T13:19:02.871Z,19.3
2017-09-28T13:20:05.022Z,19.3
2017-09-28T13:21:07.171Z,19.3
2017-09-28T13:22:09.324Z,19.2
2017-09-28T13:23:11.401Z,19.5
2017-09-28T13:24:13.482Z,19.5
2017-09-28T13:25:15.597Z,19.4
2017-09-28T13:26:17.734Z,19.5
2017-09-28T13:27:19.847Z,19.6
2017-09-28T13:28:22.493Z,19.7
2017-09-28T13:29:24.639Z,19.5
2017-09-28T13:30:26.758Z,19.3
2017-09-28T13:31:28.872Z,19.2
2017-09-28T13:32:30.960Z,19.3
2017-09-28T13:33:33.097Z,19.2
2017-09-28T13:34:35.210Z,19.4
2017-09-28T13:35:37.429Z,19.5
2017-09-28T13:36:39.554Z,19.4
2017-09-28T13:37:41.685Z,19.4
2017-09-28T13:38:43.834Z,19.4
2017-09-28T13:39:45.884Z,19.4
2017-09-28T13:40:47.972Z,19
2017-09-28T13:41:50.062Z,19.2
2017-09-28T13:42:52.172Z,19.3
2017-09-28T13:43:54.307Z,19.4
2017-09-28T13:44:56.449Z,19.4
2017-09-28T13:45:58.573Z,19.3
2017-09-28T13:47:00.847Z,19.6
2017-09-28T13:48:02.935Z,19.6
2017-09-28T13:49:05.047Z,19.5
2017-09-28T13:50:07.137Z,19.4
2017-09-28T13:51:09.219Z,19.4
2017-09-28T13:52:11.310Z,19.1
2017-09-28T13:53:13.383Z,19.3
2017-09-28T13:54:15.481Z,19.4
2017-09-28T13:55:17.630Z,19.3
2017-09-28T13:56:19.738Z,19.5
2017-09-28T13:57:21.849Z,19.4
2017-09-28T13:58:24.017Z,19.3
2017-09-28T13:59:26.111Z,19.3
2017-09-28T14:00:28.228Z,19.2
2017-09-28T14:01:30.289Z,19.2
2017-09-28T14:02:32.399Z,19.1
2017-09-28T14:03:34.491Z,19
2017-09-28T14:04:36.600Z,19
2017-09-28T14:05:38.741Z,18.9
2017-09-28T14:06:40.963Z,19
2017-09-28T14:07:43.086Z,19
2017-09-28T14:08:45.181Z,19.1
2017-09-28T14:09:47.243Z,19.2
2017-09-28T14:10:49.379Z,19.2
2017-09-28T14:11:51.494Z,19.3
2017-09-28T14:12:53.594Z,19.2
2017-09-28T14:13:55.709Z,19.1
2017-09-28T14:14:57.778Z,19
2017-09-28T14:15:59.878Z,19
2017-09-28T14:17:02.034Z,19
2017-09-28T14:18:04.137Z,18.9
2017-09-28T14:19:06.251Z,18.9
2017-09-28T14:20:08.371Z,18.9
2017-09-28T14:21:10.533Z,19.1
2017-09-28T14:22:12.632Z,19
2017-09-28T14:23:14.739Z,19.2
2017-09-28T14:24:16.829Z,19.2
2017-09-28T14:25:19.182Z,19.2
2017-09-28T14:26:21.297Z,19.1
2017-09-28T14:27:23.414Z,19.1
2017-09-28T14:28:25.611Z,19
2017-09-28T14:29:27.793Z,18.9
2017-09-28T14:30:29.902Z,19
2017-09-28T14:31:32.075Z,19
2017-09-28T14:32:34.213Z,18.8
2017-09-28T14:33:36.310Z,18.9
2017-09-28T14:34:38.515Z,18.8
2017-09-28T14:35:40.754Z,19
2017-09-28T14:36:42.872Z,19
2017-09-28T14:37:45.007Z,19.1
2017-09-28T14:38:47.126Z,19
2017-09-28T14:39:49.219Z,19.1
2017-09-28T14:40:51.352Z,19.1
2017-09-28T14:41:53.445Z,19
2017-09-28T14:42:55.567Z,19.1
2017-09-28T14:43:57.657Z,19
2017-09-28T14:44:59.839Z,19
2017-09-28T14:46:01.913Z,19
2017-09-28T14:47:04.006Z,18.8
2017-09-28T14:48:06.120Z,18.9
2017-09-28T14:49:08.198Z,18.9
2017-09-28T14:50:10.279Z,18.9
2017-09-28T14:51:12.363Z,19
2017-09-28T14:52:14.545Z,19
2017-09-28T14:53:16.659Z,19
2017-09-28T14:54:18.760Z,18.8
2017-09-28T14:55:20.930Z,18.7
2017-09-28T14:56:23.078Z,18.8
2017-09-28T14:57:25.309Z,18.8
2017-09-28T14:58:27.447Z,18.7
2017-09-28T14:59:29.581Z,18.8
2017-09-28T15:00:31.720Z,18.8
2017-09-28T15:01:33.843Z,18.8
2017-09-28T15:02:35.952Z,18.7
2017-09-28T15:03:38.036Z,18.7
2017-09-28T15:04:40.547Z,18.8
2017-09-28T15:05:42.608Z,18.7
2017-09-28T15:06:44.692Z,18.6
2017-09-28T15:07:46.953Z,18.7
2017-09-28T15:08:49.032Z,18.7
2017-09-28T15:09:51.487Z,18.7
2017-09-28T15:10:53.587Z,18.7
2017-09-28T15:11:55.697Z,18.8
2017-09-28T15:12:57.852Z,18.8
2017-09-28T15:13:59.963Z,18.9
2017-09-28T15:15:02.417Z,18.8
2017-09-28T15:16:04.565Z,18.6
2017-09-28T15:17:06.639Z,18.6
2017-09-28T15:18:08.781Z,18.6
2017-09-28T15:19:10.927Z,18.6
2017-09-28T15:20:13.380Z,18.6
2017-09-28T15:21:15.514Z,18.5
2017-09-28T15:22:17.630Z,18.5
2017-09-28T15:23:19.813Z,18.6
2017-09-28T15:24:21.918Z,18.6
2017-09-28T15:25:24.388Z,18.6
2017-09-28T15:26:26.529Z,18.6
2017-09-28T15:27:28.612Z,18.7
2017-09-28T15:28:30.697Z,18.7
2017-09-28T15:29:32.763Z,18.7
2017-09-28T15:30:36.404Z,18.7
2017-09-28T15:31:38.870Z,18.7
2017-09-28T15:32:40.980Z,18.5
2017-09-28T15:33:43.047Z,18.6
2017-09-28T15:34:45.104Z,18.7
2017-09-28T15:35:47.492Z,18.8
2017-09-28T15:36:49.597Z,18.6
2017-09-28T15:37:51.723Z,18.6
2017-09-28T15:38:53.850Z,18.6
2017-09-28T15:39:55.936Z,18.7
2017-09-28T15:40:58.402Z,18.6
2017-09-28T15:42:00.514Z,18.7
2017-09-28T15:43:02.692Z,18.7
2017-09-28T15:44:04.876Z,18.7
2017-09-28T15:45:07.097Z,18.7
2017-09-28T15:46:09.718Z,18.6
2017-09-28T15:47:11.817Z,18.5
2017-09-28T15:48:13.912Z,18.5
2017-09-28T15:49:16.060Z,18.5
2017-09-28T15:50:18.242Z,18.5
2017-09-28T15:51:20.745Z,18.5
2017-09-28T15:52:22.902Z,18.5
2017-09-28T15:53:24.992Z,18.6
2017-09-28T15:54:27.135Z,18.6
2017-09-28T15:55:29.287Z,18.5
2017-09-28T15:56:31.821Z,18.6
2017-09-28T15:57:33.955Z,18.6
2017-09-28T15:58:36.196Z,18.5
2017-09-28T15:59:38.282Z,18.5
2017-09-28T16:00:40.772Z,18.5
2017-09-28T16:01:43.136Z,18.5
2017-09-28T16:02:45.239Z,18.5
2017-09-28T16:03:47.355Z,18.5
2017-09-28T16:04:49.461Z,18.5
2017-09-28T16:05:51.555Z,18.5
2017-09-28T16:06:53.990Z,18.4
2017-09-28T16:07:56.091Z,18.5
2017-09-28T16:08:58.185Z,18.4
2017-09-28T16:10:00.316Z,18.4
2017-09-28T16:11:02.491Z,18.5
2017-09-28T16:12:04.916Z,18.4
2017-09-28T16:13:07.031Z,18.4
2017-09-28T16:14:09.159Z,18.4
2017-09-28T16:15:11.310Z,18.4
2017-09-28T16:16:13.425Z,18.4
2017-09-28T16:17:15.940Z,18.4
2017-09-28T16:18:18.144Z,18.4
2017-09-28T16:19:20.311Z,18.4
2017-09-28T16:20:22.428Z,18.3
2017-09-28T16:21:24.552Z,18.3
2017-09-28T16:22:27.177Z,18.3
2017-09-28T16:23:29.287Z,18.4
2017-09-28T16:24:31.416Z,18.4
2017-09-28T16:25:33.540Z,18.4
2017-09-28T16:26:35.708Z,18.3
2017-09-28T16:27:38.276Z,18.4
2017-09-28T16:28:40.532Z,18.4
2017-09-28T16:29:42.794Z,18.3
2017-09-28T16:30:45.040Z,18.3
2017-09-28T16:31:47.181Z,18.3
2017-09-28T16:32:49.605Z,18.3
2017-09-28T16:33:51.801Z,18.4
2017-09-28T16:34:54.015Z,18.3
2017-09-28T16:35:56.159Z,18.3
2017-09-28T16:36:58.314Z,18.3
2017-09-28T16:38:00.747Z,18.2
2017-09-28T16:39:02.869Z,18.2
2017-09-28T16:40:05.047Z,18.2
2017-09-28T16:41:07.150Z,18.1
2017-09-28T16:42:09.329Z,18.1
2017-09-28T16:43:11.821Z,18.1
2017-09-28T16:44:13.986Z,18.1
2017-09-28T16:45:16.136Z,18
2017-09-28T16:46:18.327Z,18.1
2017-09-28T16:47:20.416Z,18.2
2017-09-28T16:48:22.816Z,18.2
2017-09-28T16:49:24.972Z,18.1
2017-09-28T16:50:27.155Z,18
2017-09-28T16:51:29.517Z,18
2017-09-28T16:52:31.672Z,18
2017-09-28T16:53:34.130Z,18
2017-09-28T16:54:36.270Z,18.1
2017-09-28T16:55:38.360Z,18
2017-09-28T16:56:40.428Z,18.1
2017-09-28T16:57:42.546Z,18.1
2017-09-28T16:58:44.984Z,18
2017-09-28T16:59:47.106Z,18
2017-09-28T17:00:49.245Z,18
2017-09-28T17:01:51.373Z,18.1
2017-09-28T17:02:53.524Z,18
2017-09-28T17:03:55.925Z,18
2017-09-28T17:04:58.052Z,18
2017-09-28T17:06:00.181Z,18.1
2017-09-28T17:07:02.317Z,18
2017-09-28T17:08:04.542Z,18
2017-09-28T17:09:06.975Z,17.9
2017-09-28T17:10:09.151Z,17.9
2017-09-28T17:11:11.305Z,18
2017-09-28T17:12:13.419Z,17.9
2017-09-28T17:13:15.592Z,17.9
2017-09-28T17:14:18.058Z,17.9
2017-09-28T17:15:20.200Z,17.9
2017-09-28T17:16:22.395Z,17.8
2017-09-28T17:17:24.607Z,17.7
2017-09-28T17:18:26.752Z,17.8
2017-09-28T17:19:29.174Z,17.9
2017-09-28T17:20:31.314Z,17.8
2017-09-28T17:21:33.439Z,17.7
2017-09-28T17:22:35.540Z,17.8
2017-09-28T17:23:37.653Z,17.9
2017-09-28T17:24:40.051Z,17.9
2017-09-28T17:25:42.184Z,17.9
2017-09-28T17:26:44.313Z,17.9
2017-09-28T17:27:46.424Z,17.9
2017-09-28T17:28:48.717Z,17.8
2017-09-28T17:29:51.275Z,17.7
2017-09-28T17:30:53.420Z,17.6
2017-09-28T17:31:55.537Z,17.6
2017-09-28T17:32:57.705Z,17.6
2017-09-28T17:34:00.044Z,17.7
2017-09-28T17:35:02.550Z,17.6
2017-09-28T17:36:04.637Z,17.6
2017-09-28T17:37:06.715Z,17.6
2017-09-28T17:38:08.863Z,17.7
2017-09-28T17:39:10.994Z,17.7
2017-09-28T17:40:13.538Z,17.6
2017-09-28T17:41:15.625Z,17.6
2017-09-28T17:42:17.699Z,17.7
2017-09-28T17:43:19.806Z,17.7
2017-09-28T17:44:21.929Z,17.7
2017-09-28T17:45:24.303Z,17.7
2017-09-28T17:46:26.431Z,17.7
2017-09-28T17:47:28.665Z,17.6
2017-09-28T17:48:30.789Z,17.6
2017-09-28T17:49:32.879Z,17.6
2017-09-28T17:50:35.216Z,17.6
2017-09-28T17:51:37.325Z,17.6
2017-09-28T17:52:39.455Z,17.7
2017-09-28T17:53:41.601Z,17.8
2017-09-28T17:54:43.746Z,17.8
2017-09-28T17:55:46.234Z,17.8
2017-09-28T17:56:48.326Z,17.8
2017-09-28T17:57:50.445Z,17.7
2017-09-28T17:58:52.535Z,17.7
2017-09-28T17:59:54.697Z,17.7
2017-09-28T18:00:57.073Z,17.7
2017-09-28T18:01:59.189Z,17.7
2017-09-28T18:03:01.319Z,17.7
2017-09-28T18:04:03.465Z,17.6
2017-09-28T18:05:05.611Z,17.5
2017-09-28T18:06:08.090Z,17.5
2017-09-28T18:07:10.154Z,17.5
2017-09-28T18:08:12.293Z,17.6
2017-09-28T18:09:14.422Z,17.6
2017-09-28T18:10:16.542Z,17.6
2017-09-28T18:11:19.287Z,17.6
2017-09-28T18:12:21.488Z,17.6
2017-09-28T18:13:23.623Z,17.5
2017-09-28T18:14:26.029Z,17.5
2017-09-28T18:15:28.132Z,17.6
2017-09-28T18:16:30.551Z,17.6
2017-09-28T18:17:32.715Z,17.5
2017-09-28T18:18:34.844Z,17.5
2017-09-28T18:19:36.953Z,17.5
2017-09-28T18:20:39.110Z,17.4
2017-09-28T18:21:41.779Z,17.5
2017-09-28T18:22:43.908Z,17.5
2017-09-28T18:23:46.014Z,17.4
2017-09-28T18:24:48.167Z,17.4
2017-09-28T18:25:50.325Z,17.5
2017-09-28T18:26:52.781Z,17.4
2017-09-28T18:27:54.920Z,17.5
2017-09-28T18:28:57.067Z,17.5
2017-09-28T18:29:59.221Z,17.5
2017-09-28T18:31:01.441Z,17.4
2017-09-28T18:32:04.395Z,17.4
2017-09-28T18:33:06.561Z,17.5
2017-09-28T18:34:08.698Z,17.5
2017-09-28T18:35:10.809Z,17.5
2017-09-28T18:36:12.919Z,17.5
2017-09-28T18:37:15.488Z,17.6
2017-09-28T18:38:17.615Z,17.6
2017-09-28T18:39:19.694Z,17.6
2017-09-28T18:40:21.814Z,17.6
2017-09-28T18:41:23.961Z,17.7
2017-09-28T18:42:26.363Z,17.7
2017-09-28T18:43:28.544Z,17.6
2017-09-28T18:44:30.649Z,17.6
2017-09-28T18:45:32.760Z,17.6
2017-09-28T18:46:34.972Z,17.6
2017-09-28T18:47:37.422Z,17.6
2017-09-28T18:48:39.565Z,17.5
2017-09-28T18:49:41.767Z,17.6
2017-09-28T18:50:43.971Z,17.6
2017-09-28T18:51:46.059Z,17.6
2017-09-28T18:52:48.535Z,17.6
2017-09-28T18:53:50.675Z,17.5
2017-09-28T18:54:52.756Z,17.5
2017-09-28T18:55:54.892Z,17.4
2017-09-28T18:56:57.029Z,17.4
2017-09-28T18:57:59.554Z,17.4
2017-09-28T18:59:01.652Z,17.5
2017-09-28T19:00:03.750Z,17.5
2017-09-28T19:01:05.940Z,17.5
2017-09-28T19:02:08.172Z,17.4
2017-09-28T19:03:10.649Z,17.4
2017-09-28T19:04:12.811Z,17.3
2017-09-28T19:05:14.972Z,17.2
2017-09-28T19:06:17.154Z,17.2
2017-09-28T19:07:19.458Z,17.2
2017-09-28T19:08:21.995Z,17.2
2017-09-28T19:09:24.162Z,17.2
2017-09-28T19:10:26.319Z,17.2
2017-09-28T19:11:28.506Z,17.4
2017-09-28T19:12:30.655Z,17.4
2017-09-28T19:13:33.207Z,17.3
2017-09-28T19:14:35.346Z,17.4
2017-09-28T19:15:37.487Z,17.3
2017-09-28T19:16:39.607Z,17.3
2017-09-28T19:17:41.705Z,17.4
2017-09-28T19:18:44.208Z,17.4
2017-09-28T19:19:46.350Z,17.3
2017-09-28T19:20:48.529Z,17.4
2017-09-28T19:21:50.631Z,17.4
2017-09-28T19:22:52.721Z,17.4
2017-09-28T19:23:55.112Z,17.4
2017-09-28T19:24:57.246Z,17.5
2017-09-28T19:25:59.378Z,17.5
2017-09-28T19:27:01.623Z,17.4
2017-09-28T19:28:03.804Z,17.4
2017-09-28T19:29:06.246Z,17.3
2017-09-28T19:30:08.326Z,17.3
2017-09-28T19:31:10.426Z,17.2
2017-09-28T19:32:12.527Z,17.4
2017-09-28T19:33:14.616Z,17.4
2017-09-28T19:34:16.996Z,17.4
2017-09-28T19:35:19.158Z,17.4
2017-09-28T19:36:21.280Z,17.2
2017-09-28T19:37:23.395Z,17.2
2017-09-28T19:38:25.512Z,17.3
2017-09-28T19:39:28.020Z,17.3
2017-09-28T19:40:30.110Z,17.3
2017-09-28T19:41:32.195Z,17.4
2017-09-28T19:42:34.275Z,17.4
2017-09-28T19:43:36.401Z,17.3
2017-09-28T19:44:38.850Z,17.2
2017-09-28T19:45:41.028Z,17.2
2017-09-28T19:46:43.205Z,17.1
2017-09-28T19:47:45.348Z,17.2
2017-09-28T19:48:47.484Z,17.1
2017-09-28T19:49:50.033Z,17
2017-09-28T19:50:52.141Z,17
2017-09-28T19:51:54.298Z,17
2017-09-28T19:52:56.542Z,16.9
2017-09-28T19:53:58.702Z,16.9
2017-09-28T19:55:01.159Z,17.1
2017-09-28T19:56:03.261Z,17.1
2017-09-28T19:57:05.414Z,17.1
2017-09-28T19:58:07.598Z,17.1
2017-09-28T19:59:09.711Z,17.1
2017-09-28T20:00:12.184Z,17.1
2017-09-28T20:01:14.372Z,17
2017-09-28T20:02:16.530Z,16.9
2017-09-28T20:03:18.629Z,16.9
2017-09-28T20:04:20.782Z,16.8
2017-09-28T20:05:23.259Z,16.9
2017-09-28T20:06:25.387Z,16.9
2017-09-28T20:07:27.501Z,16.8
2017-09-28T20:08:29.658Z,16.8
2017-09-28T20:09:31.827Z,16.7
2017-09-28T20:10:34.317Z,16.8
2017-09-28T20:11:36.457Z,16.8
2017-09-28T20:12:38.786Z,16.9
2017-09-28T20:13:40.963Z,16.8
2017-09-28T20:14:43.070Z,16.7
2017-09-28T20:15:45.592Z,16.8
2017-09-28T20:16:47.739Z,16.9
2017-09-28T20:17:49.829Z,16.7
2017-09-28T20:18:51.974Z,16.8
2017-09-28T20:19:54.082Z,16.8
2017-09-28T20:20:56.501Z,16.8
2017-09-28T20:21:58.649Z,16.6
2017-09-28T20:23:00.719Z,16.7
2017-09-28T20:24:02.811Z,17
2017-09-28T20:25:04.990Z,17.1
2017-09-28T20:26:07.600Z,16.9
2017-09-28T20:27:09.734Z,17
2017-09-28T20:28:11.849Z,16.9
2017-09-28T20:29:13.945Z,16.7
2017-09-28T20:30:16.057Z,16.6
2017-09-28T20:31:18.472Z,16.5
2017-09-28T20:32:20.609Z,16.5
2017-09-28T20:33:22.712Z,16.6
2017-09-28T20:34:24.867Z,16.6
2017-09-28T20:35:27.003Z,16.6
2017-09-28T20:36:29.460Z,16.7
2017-09-28T20:37:31.568Z,16.7
2017-09-28T20:38:33.697Z,16.6
2017-09-28T20:39:35.908Z,16.7
2017-09-28T20:40:38.009Z,16.7
2017-09-28T20:41:40.578Z,16.6
2017-09-28T20:42:42.696Z,16.6
2017-09-28T20:43:44.865Z,16.6
2017-09-28T20:44:47.006Z,16.6
2017-09-28T20:45:49.106Z,16.7
2017-09-28T20:46:51.523Z,16.6
2017-09-28T20:47:53.643Z,16.5
2017-09-28T20:48:55.749Z,16.6
2017-09-28T20:49:57.854Z,16.7
2017-09-28T20:50:59.952Z,16.6
2017-09-28T20:52:02.475Z,16.6
2017-09-28T20:53:04.606Z,16.6
2017-09-28T20:54:06.702Z,16.6
2017-09-28T20:55:08.827Z,16.6
2017-09-28T20:56:10.960Z,16.7
2017-09-28T20:57:13.366Z,16.8
2017-09-28T20:58:15.452Z,16.8
2017-09-28T20:59:17.654Z,16.7
2017-09-28T21:00:19.790Z,16.7
2017-09-28T21:01:21.996Z,16.7
2017-09-28T21:02:24.517Z,16.8
2017-09-28T21:03:26.602Z,16.7
2017-09-28T21:04:28.740Z,16.7
2017-09-28T21:05:30.895Z,16.7
2017-09-28T21:06:32.993Z,16.7
2017-09-28T21:07:35.397Z,16.6
2017-09-28T21:08:37.490Z,16.5
2017-09-28T21:09:39.618Z,16.5
2017-09-28T21:10:41.787Z,16.4
2017-09-28T21:11:43.975Z,16.5
2017-09-28T21:12:46.475Z,16.4
2017-09-28T21:13:48.691Z,16.4
2017-09-28T21:14:50.846Z,16.4
2017-09-28T21:15:53.330Z,16.4
2017-09-28T21:16:55.721Z,16.4
2017-09-28T21:17:58.843Z,16.4
2017-09-28T21:19:01.199Z,16.4
2017-09-28T21:20:03.317Z,16.4
2017-09-28T21:21:05.509Z,16.5
2017-09-28T21:22:07.684Z,16.4
2017-09-28T21:23:10.122Z,16.4
2017-09-28T21:24:12.223Z,16.4
2017-09-28T21:25:15.525Z,16.3
2017-09-28T21:26:17.924Z,16.3
2017-09-28T21:27:22.430Z,16.4
2017-09-28T21:28:25.426Z,16.4
2017-09-28T21:29:29.807Z,16.4
2017-09-28T21:30:32.563Z,16.4
2017-09-28T21:31:34.896Z,16.4
2017-09-28T21:32:37.103Z,16.4
2017-09-28T21:33:39.582Z,16.4
2017-09-28T21:34:41.665Z,16.4
2017-09-28T21:35:43.773Z,16.3
2017-09-28T21:36:45.859Z,16.3
2017-09-28T21:37:47.925Z,16.3
2017-09-28T21:38:50.442Z,16.4
2017-09-28T21:39:52.553Z,16.5
2017-09-28T21:40:54.676Z,16.4
2017-09-28T21:41:56.754Z,16.3
2017-09-28T21:42:58.849Z,16.4
2017-09-28T21:44:01.342Z,16.4
2017-09-28T21:45:03.479Z,16.4
2017-09-28T21:46:05.592Z,16.4
2017-09-28T21:47:07.658Z,16.4
2017-09-28T21:48:09.770Z,16.5
2017-09-28T21:49:12.178Z,16.5
2017-09-28T21:50:14.228Z,16.5
2017-09-28T21:51:16.352Z,16.4
2017-09-28T21:52:18.436Z,16.4
2017-09-28T21:53:20.559Z,16.5
2017-09-28T21:54:23.060Z,16.5
2017-09-28T21:55:25.174Z,16.5
2017-09-28T21:56:27.563Z,16.4
2017-09-28T21:57:29.659Z,16.5
2017-09-28T21:58:31.796Z,16.3
2017-09-28T21:59:34.148Z,16.4
2017-09-28T22:00:36.240Z,16.4
2017-09-28T22:01:39.002Z,16.4
2017-09-28T22:02:41.124Z,16.4
2017-09-28T22:03:43.232Z,16.5
2017-09-28T22:04:46.588Z,16.5
2017-09-28T22:05:48.672Z,16.2
2017-09-28T22:06:51.810Z,16.1
2017-09-28T22:07:53.918Z,16.2
2017-09-28T22:08:56.015Z,16.3
2017-09-28T22:09:58.462Z,16.2
2017-09-28T22:11:02.843Z,16
2017-09-28T22:12:06.851Z,16.2
2017-09-28T22:13:12.377Z,16.2
2017-09-28T22:14:17.264Z,16
2017-09-28T22:15:21.089Z,16
2017-09-28T22:16:24.075Z,16.1
2017-09-28T22:17:27.791Z,16.3
2017-09-28T22:18:29.909Z,16.3
2017-09-28T22:19:32.011Z,16.1
2017-09-28T22:20:34.418Z,16.2
2017-09-28T22:21:39.400Z,16.2
2017-09-28T22:22:41.488Z,16.1
2017-09-28T22:23:43.910Z,16.1
2017-09-28T22:24:45.978Z,16.1
2017-09-28T22:25:48.394Z,16.2
2017-09-28T22:26:50.504Z,16.2
2017-09-28T22:27:52.590Z,16.1
2017-09-28T22:28:54.701Z,16.1
2017-09-28T22:29:56.843Z,16
2017-09-28T22:30:59.344Z,16
2017-09-28T22:32:01.491Z,16
2017-09-28T22:33:03.675Z,16.1
2017-09-28T22:34:07.125Z,16.1
2017-09-28T22:35:09.210Z,16
2017-09-28T22:36:11.707Z,16.1
2017-09-28T22:37:13.798Z,16.1
2017-09-28T22:38:15.886Z,16
2017-09-28T22:39:17.973Z,16
2017-09-28T22:40:20.276Z,16
2017-09-28T22:41:22.807Z,15.9
2017-09-28T22:42:25.509Z,15.9
2017-09-28T22:43:27.882Z,16
2017-09-28T22:44:29.965Z,16
2017-09-28T22:45:32.038Z,16
2017-09-28T22:46:34.636Z,16
2017-09-28T22:47:36.752Z,16
2017-09-28T22:48:38.818Z,16
2017-09-28T22:49:40.886Z,16.1
2017-09-28T22:50:42.972Z,16.2
2017-09-28T22:51:45.483Z,16.2
2017-09-28T22:52:47.574Z,16.2
2017-09-28T22:53:51.787Z,16.2
2017-09-28T22:54:53.962Z,16.2
2017-09-28T22:55:56.043Z,16.2
2017-09-28T22:56:58.477Z,16.2
2017-09-28T22:58:00.565Z,16.1
2017-09-28T22:59:02.788Z,16.2
2017-09-28T23:00:04.850Z,16.2
2017-09-28T23:01:06.963Z,16.2
2017-09-28T23:02:09.337Z,16.2
2017-09-28T23:03:11.354Z,16.1
2017-09-28T23:04:13.453Z,16.1
2017-09-28T23:05:15.540Z,16.1
2017-09-28T23:06:17.638Z,16.1
2017-09-28T23:07:20.045Z,16.1
2017-09-28T23:08:22.128Z,16.1
2017-09-28T23:09:24.202Z,16.2
2017-09-28T23:10:26.292Z,16.2
2017-09-28T23:11:28.424Z,16.3
2017-09-28T23:12:30.797Z,16.4
2017-09-28T23:13:33.054Z,16.2
2017-09-28T23:14:35.153Z,16.2
2017-09-28T23:15:37.192Z,16.1
2017-09-28T23:16:39.259Z,16.1
2017-09-28T23:17:41.716Z,16
2017-09-28T23:18:43.791Z,16
2017-09-28T23:19:45.845Z,16.1
2017-09-28T23:20:47.904Z,16.1
2017-09-28T23:21:49.973Z,16.1
2017-09-28T23:22:52.470Z,16.2
2017-09-28T23:23:54.667Z,16.2
2017-09-28T23:24:56.801Z,16.1
2017-09-28T23:25:58.901Z,16.1
2017-09-28T23:27:00.966Z,16.1
2017-09-28T23:28:03.317Z,16
2017-09-28T23:29:05.383Z,16
2017-09-28T23:30:07.518Z,16
2017-09-28T23:31:09.624Z,16
2017-09-28T23:32:11.692Z,15.9
2017-09-28T23:33:14.098Z,15.9
2017-09-28T23:34:16.178Z,15.9
2017-09-28T23:35:18.586Z,15.9
2017-09-28T23:36:20.683Z,15.9
2017-09-28T23:37:22.754Z,16
2017-09-28T23:38:25.141Z,15.9
2017-09-28T23:39:27.184Z,15.9
2017-09-28T23:40:29.286Z,15.9
2017-09-28T23:41:31.344Z,15.9
2017-09-28T23:42:33.418Z,15.9
2017-09-28T23:43:35.812Z,15.8
2017-09-28T23:44:37.894Z,15.9
2017-09-28T23:45:40.013Z,15.9
2017-09-28T23:46:42.124Z,15.8
2017-09-28T23:47:44.242Z,15.7
2017-09-28T23:48:46.601Z,15.8
2017-09-28T23:49:48.775Z,15.7
2017-09-28T23:50:50.864Z,15.8
2017-09-28T23:51:52.961Z,15.9
2017-09-28T23:52:55.034Z,15.9
2017-09-28T23:53:57.387Z,15.8
2017-09-28T23:54:59.459Z,15.9
2017-09-28T23:56:01.556Z,15.6
2017-09-28T23:57:03.632Z,15.6
2017-09-28T23:58:05.815Z,15.7
2017-09-28T23:59:08.129Z,15.8
